createdAt,value
2023-04-06T00:00:58.832Z,14.52
2023-04-06T00:03:25.889Z,14.70
2023-04-06T00:05:54.141Z,15.10
2023-04-06T00:08:22.389Z,13.85
2023-04-06T00:10:49.271Z,15.77
2023-04-06T00:13:16.115Z,15.57
2023-04-06T00:15:42.951Z,16.70
2023-04-06T00:18:09.965Z,14.65
2023-04-06T00:20:36.840Z,16.33
2023-04-06T00:23:03.692Z,14.80
2023-04-06T00:25:30.557Z,16.13
2023-04-06T00:27:57.353Z,13.55
2023-04-06T00:30:24.118Z,14.13
2023-04-06T00:32:51.109Z,14.73
2023-04-06T00:35:18.176Z,15.32
2023-04-06T00:37:49.052Z,15.27
2023-04-06T00:40:16.573Z,15.00
2023-04-06T00:42:43.584Z,13.52
2023-04-06T00:45:11.313Z,14.88
2023-04-06T00:47:38.470Z,14.82
2023-04-06T00:50:06.287Z,16.23
2023-04-06T00:52:34.736Z,15.70
2023-04-06T00:55:01.827Z,16.00
2023-04-06T00:57:28.860Z,16.92
2023-04-06T00:59:57.437Z,13.40
2023-04-06T01:02:26.565Z,15.15
2023-04-06T01:04:55.505Z,14.75
2023-04-06T01:07:30.911Z,16.13
2023-04-06T01:10:09.722Z,15.20
2023-04-06T01:12:39.614Z,15.43
2023-04-06T01:15:12.085Z,14.35
2023-04-06T01:17:42.376Z,14.45
2023-04-06T01:20:14.128Z,13.95
2023-04-06T01:22:41.314Z,13.48
2023-04-06T01:25:09.509Z,16.13
2023-04-06T01:27:50.381Z,13.50
2023-04-06T01:30:40.430Z,14.68
2023-04-06T01:33:15.388Z,14.38
2023-04-06T01:36:05.075Z,11.93
2023-04-06T01:38:32.131Z,15.07
2023-04-06T01:40:59.009Z,13.52
2023-04-06T01:43:29.465Z,15.38
2023-04-06T01:46:08.667Z,14.30
2023-04-06T01:48:39.294Z,14.77
2023-04-06T01:51:15.435Z,16.15
2023-04-06T01:53:56.085Z,13.60
2023-04-06T01:56:28.647Z,11.82
2023-04-06T01:59:05.805Z,14.57
2023-04-06T02:01:38.736Z,13.90
2023-04-06T02:04:05.916Z,14.30
2023-04-06T02:06:33.105Z,14.05
2023-04-06T02:09:01.499Z,12.57
2023-04-06T02:11:28.703Z,13.65
2023-04-06T02:13:57.490Z,13.50
2023-04-06T02:16:29.062Z,12.43
2023-04-06T02:18:55.945Z,12.82
2023-04-06T02:21:22.821Z,12.20
2023-04-06T02:23:50.419Z,12.43
2023-04-06T02:26:18.338Z,11.70
2023-04-06T02:28:45.414Z,13.27
2023-04-06T02:31:12.475Z,12.20
2023-04-06T02:33:39.443Z,14.32
2023-04-06T02:36:07.400Z,13.73
2023-04-06T02:38:34.201Z,14.10
2023-04-06T02:41:02.312Z,14.13
2023-04-06T02:43:30.569Z,14.88
2023-04-06T02:46:05.915Z,14.43
2023-04-06T02:48:38.061Z,12.38
2023-04-06T02:51:04.972Z,13.10
2023-04-06T02:53:31.806Z,14.95
2023-04-06T02:55:58.934Z,13.68
2023-04-06T02:58:33.671Z,13.57
2023-04-06T03:01:00.519Z,13.48
2023-04-06T03:03:27.451Z,13.70
2023-04-06T03:05:55.900Z,13.70
2023-04-06T03:08:27.426Z,12.02
2023-04-06T03:10:54.196Z,14.45
2023-04-06T03:13:21.945Z,13.93
2023-04-06T03:15:52.222Z,16.92
2023-04-06T03:18:26.298Z,15.95
2023-04-06T03:20:57.145Z,16.08
2023-04-06T03:23:32.984Z,15.90
2023-04-06T03:26:03.740Z,16.33
2023-04-06T03:28:30.917Z,19.50
2023-04-06T03:31:00.920Z,16.20
2023-04-06T03:33:56.912Z,16.20
2023-04-06T03:36:28.169Z,14.00
2023-04-06T03:38:57.359Z,14.60
2023-04-06T03:41:24.376Z,16.50
2023-04-06T03:44:23.407Z,15.90
2023-04-06T03:46:50.276Z,16.75
2023-04-06T03:49:18.073Z,15.93
2023-04-06T03:51:48.587Z,17.17
2023-04-06T03:54:15.816Z,18.17
2023-04-06T03:56:43.360Z,14.85
2023-04-06T03:59:10.564Z,17.15
2023-04-06T04:01:37.573Z,16.58
2023-04-06T04:04:04.561Z,15.65
2023-04-06T04:06:32.107Z,18.25
2023-04-06T04:09:00.240Z,17.83
2023-04-06T04:11:27.104Z,19.52
2023-04-06T04:13:58.242Z,16.55
2023-04-06T04:16:25.148Z,18.08
2023-04-06T04:18:52.009Z,18.08
2023-04-06T04:21:18.751Z,18.27
2023-04-06T04:23:45.655Z,16.27
2023-04-06T04:26:12.447Z,19.38
2023-04-06T04:28:39.842Z,16.83
2023-04-06T04:31:06.679Z,18.13
2023-04-06T04:33:35.679Z,20.33
2023-04-06T04:36:07.375Z,19.05
2023-04-06T04:38:39.915Z,18.30
2023-04-06T04:41:06.774Z,17.25
2023-04-06T04:43:35.796Z,17.02
2023-04-06T04:46:05.006Z,20.77
2023-04-06T04:48:41.004Z,17.05
2023-04-06T04:51:08.831Z,17.70
2023-04-06T04:54:04.629Z,18.55
2023-04-06T04:56:33.059Z,17.58
2023-04-06T04:59:17.256Z,19.60
2023-04-06T05:01:55.176Z,19.48
2023-04-06T05:04:27.591Z,19.85
2023-04-06T05:07:09.124Z,17.48
2023-04-06T05:09:38.369Z,19.20
2023-04-06T05:12:06.343Z,20.38
2023-04-06T05:14:38.436Z,18.20
2023-04-06T05:17:11.130Z,25.77
2023-04-06T05:19:38.102Z,18.95
2023-04-06T05:22:05.259Z,19.63
2023-04-06T05:24:36.208Z,22.10
2023-04-06T05:27:06.646Z,21.25
2023-04-06T05:29:34.211Z,20.35
2023-04-06T05:32:02.916Z,18.55
2023-04-06T05:34:29.955Z,19.70
2023-04-06T05:36:57.571Z,18.77
2023-04-06T05:39:26.561Z,20.83
2023-04-06T05:41:54.468Z,19.95
2023-04-06T05:44:31.728Z,19.05
2023-04-06T05:47:07.213Z,19.85
2023-04-06T05:49:35.663Z,21.23
2023-04-06T05:52:02.775Z,23.23
2023-04-06T05:54:30.986Z,21.45
2023-04-06T05:57:04.098Z,19.15
2023-04-06T05:59:32.536Z,21.65
2023-04-06T06:01:59.615Z,22.48
2023-04-06T06:04:26.913Z,20.55
2023-04-06T06:06:55.206Z,21.27
2023-04-06T06:09:34.558Z,22.77
2023-04-06T06:12:13.382Z,20.42
2023-04-06T06:14:41.761Z,23.83
2023-04-06T06:17:09.553Z,21.67
2023-04-06T06:19:36.806Z,22.45
2023-04-06T06:22:06.752Z,19.98
2023-04-06T06:24:37.252Z,24.65
2023-04-06T06:27:04.470Z,21.90
2023-04-06T06:29:33.758Z,20.80
2023-04-06T06:32:01.233Z,25.10
2023-04-06T06:34:28.235Z,20.75
2023-04-06T06:36:57.907Z,20.95
2023-04-06T06:39:24.812Z,26.92
2023-04-06T06:41:51.619Z,22.13
2023-04-06T06:44:22.654Z,23.95
2023-04-06T06:46:49.547Z,24.63
2023-04-06T06:49:16.807Z,23.42
2023-04-06T06:51:43.614Z,23.02
2023-04-06T06:54:10.548Z,23.08
2023-04-06T06:56:38.928Z,23.27
2023-04-06T06:59:07.080Z,24.30
2023-04-06T07:01:36.139Z,24.73
2023-04-06T07:04:05.233Z,25.35
2023-04-06T07:06:32.048Z,24.83
2023-04-06T07:08:58.901Z,23.50
2023-04-06T07:11:25.816Z,22.77
2023-04-06T07:13:52.592Z,25.15
2023-04-06T07:16:20.636Z,24.20
2023-04-06T07:18:47.587Z,27.73
2023-04-06T07:21:14.650Z,25.83
2023-04-06T07:23:42.527Z,23.95
2023-04-06T07:26:09.481Z,24.40
2023-04-06T07:28:37.942Z,27.90
2023-04-06T07:31:04.960Z,27.38
2023-04-06T07:33:31.936Z,26.02
2023-04-06T07:36:00.004Z,27.73
2023-04-06T07:38:26.828Z,23.02
2023-04-06T07:40:53.996Z,23.35
2023-04-06T07:43:20.973Z,28.30
2023-04-06T07:45:48.715Z,26.58
2023-04-06T07:48:17.245Z,24.05
2023-04-06T07:50:44.851Z,23.00
2023-04-06T07:53:11.886Z,27.30
2023-04-06T07:55:39.773Z,25.75
2023-04-06T07:58:06.592Z,26.48
2023-04-06T08:00:33.626Z,26.73
2023-04-06T08:03:00.573Z,25.80
2023-04-06T08:05:27.604Z,30.83
2023-04-06T08:07:54.336Z,27.38
2023-04-06T08:10:21.192Z,29.73
2023-04-06T08:12:48.006Z,27.05
2023-04-06T08:15:14.934Z,27.25
2023-04-06T08:17:41.944Z,23.67
2023-04-06T08:20:09.186Z,30.38
2023-04-06T08:22:36.023Z,25.88
2023-04-06T08:25:02.798Z,27.33
2023-04-06T08:27:29.590Z,25.27
2023-04-06T08:29:56.390Z,25.17
2023-04-06T08:32:23.237Z,30.05
2023-04-06T08:34:50.069Z,28.48
2023-04-06T08:37:16.925Z,30.50
2023-04-06T08:39:43.705Z,29.65
2023-04-06T08:42:27.234Z,30.27
2023-04-06T08:44:56.599Z,28.98
2023-04-06T08:47:25.020Z,31.80
2023-04-06T08:49:54.592Z,30.60
2023-04-06T08:52:21.712Z,29.02
2023-04-06T08:54:48.939Z,27.40
2023-04-06T08:57:17.348Z,29.48
2023-04-06T08:59:45.198Z,28.52
2023-04-06T09:02:18.491Z,30.77
2023-04-06T09:04:49.125Z,32.75
2023-04-06T09:07:17.468Z,27.80
2023-04-06T09:09:48.454Z,27.85
2023-04-06T09:12:27.960Z,28.02
2023-04-06T09:14:56.601Z,28.60
2023-04-06T09:17:25.338Z,28.05
2023-04-06T09:19:52.850Z,27.90
2023-04-06T09:22:21.012Z,31.08
2023-04-06T09:24:51.720Z,31.25
2023-04-06T09:27:18.844Z,29.63
2023-04-06T09:29:45.986Z,28.60
2023-04-06T09:32:17.423Z,29.33
2023-04-06T09:34:44.484Z,27.58
2023-04-06T09:37:19.338Z,28.92
2023-04-06T09:39:47.425Z,32.67
2023-04-06T09:42:27.057Z,30.25
2023-04-06T09:44:54.068Z,31.42
2023-04-06T09:47:25.206Z,32.80
2023-04-06T09:49:59.239Z,34.03
2023-04-06T09:52:33.647Z,33.88
2023-04-06T09:55:06.256Z,35.63
2023-04-06T09:57:53.923Z,32.95
2023-04-06T10:00:24.353Z,34.00
2023-04-06T10:03:21.104Z,31.48
2023-04-06T10:05:59.229Z,31.13
2023-04-06T10:08:32.503Z,35.30
2023-04-06T10:11:02.331Z,31.90
2023-04-06T10:13:29.660Z,30.38
2023-04-06T10:15:57.081Z,29.05
2023-04-06T10:18:24.368Z,27.10
2023-04-06T10:20:58.222Z,25.58
2023-04-06T10:23:37.098Z,20.08
2023-04-06T10:26:04.638Z,18.58
2023-04-06T10:28:35.162Z,16.25
2023-04-06T10:31:06.781Z,16.65
2023-04-06T10:33:34.072Z,17.92
2023-04-06T10:36:27.676Z,15.95
2023-04-06T10:39:04.332Z,13.95
2023-04-06T10:41:46.977Z,12.98
2023-04-06T10:44:25.553Z,12.40
2023-04-06T10:47:03.941Z,12.40
2023-04-06T10:49:30.989Z,12.02
2023-04-06T10:51:58.733Z,7.85
2023-04-06T10:54:27.689Z,9.65
2023-04-06T10:56:54.688Z,9.50
2023-04-06T10:59:22.726Z,8.95
2023-04-06T11:01:50.237Z,10.85
2023-04-06T11:04:22.041Z,9.57
2023-04-06T11:06:51.353Z,10.02
2023-04-06T11:09:32.538Z,7.95
2023-04-06T11:11:59.866Z,8.45
2023-04-06T11:14:27.435Z,9.10
2023-04-06T11:16:54.597Z,7.68
2023-04-06T11:19:21.637Z,10.50
2023-04-06T11:21:50.122Z,8.88
2023-04-06T11:24:22.558Z,8.38
2023-04-06T11:26:57.767Z,9.48
2023-04-06T11:29:34.727Z,9.05
2023-04-06T11:32:04.893Z,9.48
2023-04-06T11:34:37.829Z,7.80
2023-04-06T11:37:10.722Z,9.57
2023-04-06T11:39:51.482Z,8.88
2023-04-06T11:42:30.390Z,9.02
2023-04-06T11:45:01.312Z,8.73
2023-04-06T11:47:37.380Z,10.35
2023-04-06T11:50:15.457Z,10.57
2023-04-06T11:52:43.971Z,8.20
2023-04-06T11:55:17.848Z,9.15
2023-04-06T11:57:46.074Z,9.57
2023-04-06T12:00:13.922Z,8.93
2023-04-06T12:02:46.263Z,9.05
2023-04-06T12:05:13.386Z,10.98
2023-04-06T12:10:12.366Z,9.35
2023-04-06T12:12:39.341Z,11.85
2023-04-06T12:15:07.452Z,10.18
2023-04-06T12:17:34.268Z,10.05
2023-04-06T12:20:09.410Z,13.65
2023-04-06T12:22:44.751Z,12.30
2023-04-06T12:25:11.877Z,11.30
2023-04-06T12:27:38.629Z,11.32
2023-04-06T12:30:06.386Z,10.73
2023-04-06T12:32:33.218Z,11.73
2023-04-06T12:35:00.281Z,12.25
2023-04-06T12:37:28.185Z,14.00
2023-04-06T12:39:54.948Z,11.52
2023-04-06T12:42:21.817Z,12.45
2023-04-06T12:44:48.728Z,14.75
2023-04-06T12:47:15.600Z,11.90
2023-04-06T12:49:42.533Z,13.13
2023-04-06T12:52:09.410Z,14.27
2023-04-06T12:54:36.220Z,14.30
2023-04-06T12:57:03.133Z,13.05
2023-04-06T12:59:36.465Z,11.93
2023-04-06T13:02:05.164Z,17.30
2023-04-06T13:04:32.099Z,12.73
2023-04-06T13:06:58.926Z,15.25
2023-04-06T13:09:25.779Z,14.82
2023-04-06T13:11:52.542Z,14.68
2023-04-06T13:14:19.365Z,14.88
2023-04-06T13:16:47.034Z,13.55
2023-04-06T13:19:14.017Z,16.38
2023-04-06T13:21:40.842Z,15.10
2023-04-06T13:24:07.766Z,16.40
2023-04-06T13:26:34.651Z,15.00
2023-04-06T13:29:02.270Z,14.15
2023-04-06T13:31:29.824Z,13.60
2023-04-06T13:33:56.624Z,13.32
2023-04-06T13:36:23.697Z,13.13
2023-04-06T13:38:50.869Z,15.38
2023-04-06T13:41:23.162Z,14.60
2023-04-06T13:43:50.759Z,13.90
2023-04-06T13:46:18.060Z,16.73
2023-04-06T13:48:45.468Z,14.07
2023-04-06T13:51:13.822Z,14.77
2023-04-06T13:53:41.828Z,14.70
2023-04-06T13:56:09.497Z,17.30
2023-04-06T13:58:37.143Z,16.10
2023-04-06T14:01:11.271Z,16.52
2023-04-06T14:03:40.604Z,17.20
2023-04-06T14:06:26.976Z,15.13
2023-04-06T14:08:57.950Z,15.80
2023-04-06T14:11:25.050Z,17.05
2023-04-06T14:13:52.010Z,15.48
2023-04-06T14:16:20.611Z,14.15
2023-04-06T14:18:47.538Z,16.80
2023-04-06T14:21:14.342Z,15.18
2023-04-06T14:23:41.615Z,16.75
2023-04-06T14:26:09.517Z,14.68
2023-04-06T14:28:37.334Z,17.15
2023-04-06T14:31:13.197Z,13.88
2023-04-06T14:33:40.891Z,14.32
2023-04-06T14:36:08.722Z,17.05
2023-04-06T14:38:36.454Z,15.35
2023-04-06T14:41:03.359Z,14.18
2023-04-06T14:43:30.731Z,12.35
2023-04-06T14:46:02.595Z,14.50
2023-04-06T14:48:29.881Z,13.05
2023-04-06T14:50:57.870Z,13.25
2023-04-06T14:53:25.931Z,14.05
2023-04-06T14:55:53.784Z,12.63
2023-04-06T14:58:22.052Z,13.15
2023-04-06T15:00:50.023Z,12.90
2023-04-06T15:03:17.170Z,12.55
2023-04-06T15:05:44.143Z,12.68
2023-04-06T15:08:12.466Z,12.95
2023-04-06T15:10:39.336Z,12.48
2023-04-06T15:13:06.273Z,13.63
2023-04-06T15:15:33.321Z,11.90
2023-04-06T15:18:03.289Z,13.43
2023-04-06T15:20:30.663Z,11.65
2023-04-06T15:22:57.794Z,12.40
2023-04-06T15:25:24.931Z,11.75
2023-04-06T15:27:51.830Z,13.05
2023-04-06T15:30:18.699Z,11.13
2023-04-06T15:33:01.393Z,12.48
2023-04-06T15:35:29.659Z,11.82
2023-04-06T15:37:57.955Z,12.32
2023-04-06T15:40:26.052Z,12.48
2023-04-06T15:42:52.989Z,12.73
2023-04-06T15:45:19.855Z,12.48
2023-04-06T15:47:46.791Z,14.68
2023-04-06T15:50:14.741Z,10.35
2023-04-06T15:52:41.582Z,10.18
2023-04-06T15:55:10.266Z,10.45
2023-04-06T15:57:37.155Z,9.35
2023-04-06T16:00:05.015Z,9.27
2023-04-06T16:02:36.534Z,9.65
2023-04-06T16:05:04.191Z,12.10
2023-04-06T16:07:32.406Z,10.20
2023-04-06T16:09:59.276Z,9.60
2023-04-06T16:12:27.736Z,11.25
2023-04-06T16:14:55.822Z,8.07
2023-04-06T16:17:22.992Z,9.20
2023-04-06T16:19:49.888Z,9.90
2023-04-06T16:22:16.881Z,9.45
2023-04-06T16:24:43.781Z,9.60
2023-04-06T16:27:10.661Z,8.05
2023-04-06T16:29:37.495Z,9.55
2023-04-06T16:32:04.887Z,10.02
2023-04-06T16:34:33.595Z,9.50
2023-04-06T16:37:01.696Z,9.73
2023-04-06T16:39:28.754Z,8.60
2023-04-06T16:41:56.271Z,9.73
2023-04-06T16:44:23.705Z,8.45
2023-04-06T16:46:51.015Z,10.65
2023-04-06T16:49:19.425Z,9.23
2023-04-06T16:51:46.410Z,9.45
2023-04-06T16:54:13.236Z,9.70
2023-04-06T16:56:39.975Z,9.95
2023-04-06T16:59:09.935Z,10.65
2023-04-06T17:01:36.922Z,9.43
2023-04-06T17:04:03.960Z,9.27
2023-04-06T17:06:31.250Z,11.40
2023-04-06T17:08:59.652Z,11.90
2023-04-06T17:11:32.796Z,10.38
2023-04-06T17:14:08.265Z,10.95
2023-04-06T17:16:36.005Z,9.38
2023-04-06T17:19:03.048Z,10.75
2023-04-06T17:21:29.781Z,10.07
2023-04-06T17:23:56.593Z,10.05
2023-04-06T17:26:23.451Z,10.30
2023-04-06T17:28:50.320Z,10.23
2023-04-06T17:31:17.159Z,12.18
2023-04-06T17:33:44.530Z,10.25
2023-04-06T17:36:12.311Z,10.93
2023-04-06T17:38:43.481Z,9.90
2023-04-06T17:41:14.237Z,10.02
2023-04-06T17:43:41.254Z,10.25
2023-04-06T17:46:08.960Z,12.05
2023-04-06T17:48:36.041Z,16.25
2023-04-06T17:51:03.150Z,14.82
2023-04-06T17:53:34.339Z,13.27
2023-04-06T17:56:04.871Z,11.27
2023-04-06T17:58:31.996Z,10.90
2023-04-06T18:00:58.897Z,10.45
2023-04-06T18:03:26.098Z,10.05
2023-04-06T18:05:52.958Z,10.02
2023-04-06T18:08:19.888Z,9.80
2023-04-06T18:10:48.323Z,9.60
2023-04-06T18:13:15.558Z,9.15
2023-04-06T18:15:42.362Z,11.00
2023-04-06T18:18:09.174Z,11.25
2023-04-06T18:20:41.517Z,13.02
2023-04-06T18:23:08.513Z,14.02
2023-04-06T18:25:41.513Z,10.68
2023-04-06T18:28:09.529Z,9.70
2023-04-06T18:30:36.554Z,10.38
2023-04-06T18:33:04.171Z,10.77
2023-04-06T18:35:31.146Z,11.90
2023-04-06T18:37:58.027Z,8.70
2023-04-06T18:40:51.840Z,9.85
2023-04-06T18:43:18.688Z,8.63
2023-04-06T18:45:45.908Z,8.98
2023-04-06T18:48:13.625Z,10.20
2023-04-06T18:50:41.019Z,9.18
2023-04-06T18:53:07.872Z,9.80
2023-04-06T18:55:36.211Z,8.90
2023-04-06T18:58:03.121Z,10.13
2023-04-06T19:00:30.180Z,9.48
2023-04-06T19:02:57.078Z,9.40
2023-04-06T19:05:24.003Z,10.18
2023-04-06T19:07:52.568Z,10.23
2023-04-06T19:10:19.791Z,9.65
2023-04-06T19:12:47.867Z,10.40
2023-04-06T19:15:15.199Z,9.80
2023-04-06T19:17:42.370Z,11.07
2023-04-06T19:20:09.688Z,9.63
2023-04-06T19:22:37.380Z,10.57
2023-04-06T19:25:05.994Z,11.27
2023-04-06T19:27:32.803Z,10.27
2023-04-06T19:30:00.623Z,10.52
2023-04-06T19:32:27.988Z,10.07
2023-04-06T19:34:54.874Z,12.13
2023-04-06T19:37:22.499Z,11.05
2023-04-06T19:39:49.657Z,11.02
2023-04-06T19:42:16.528Z,11.85
2023-04-06T19:44:43.351Z,11.68
2023-04-06T19:47:12.169Z,11.68
2023-04-06T19:49:40.593Z,12.05
2023-04-06T19:52:10.010Z,12.25
2023-04-06T19:54:39.488Z,12.98
2023-04-06T19:57:07.155Z,12.80
2023-04-06T19:59:36.928Z,12.07
2023-04-06T20:02:04.012Z,13.15
2023-04-06T20:04:31.176Z,12.98
2023-04-06T20:06:58.104Z,13.65
2023-04-06T20:09:25.068Z,12.60
2023-04-06T20:11:53.939Z,13.23
2023-04-06T20:14:22.215Z,14.20
2023-04-06T20:16:50.565Z,14.65
2023-04-06T20:19:17.915Z,16.65
2023-04-06T20:21:44.751Z,16.58
2023-04-06T20:24:11.788Z,16.23
2023-04-06T20:26:38.626Z,16.50
2023-04-06T20:29:05.525Z,17.23
2023-04-06T20:31:33.692Z,16.90
2023-04-06T20:34:01.509Z,18.08
2023-04-06T20:36:31.118Z,17.50
2023-04-06T20:38:57.874Z,16.92
2023-04-06T20:41:25.102Z,18.40
2023-04-06T20:43:52.186Z,20.52
2023-04-06T20:46:19.145Z,19.17
2023-04-06T20:48:46.246Z,18.85
2023-04-06T20:51:23.598Z,20.17
2023-04-06T20:53:50.791Z,20.42
2023-04-06T20:56:17.616Z,20.90
2023-04-06T20:58:44.608Z,20.45
2023-04-06T21:01:16.516Z,20.58
2023-04-06T21:03:44.624Z,21.92
2023-04-06T21:06:11.915Z,20.60
2023-04-06T21:08:38.925Z,21.42
2023-04-06T21:11:06.274Z,20.25
2023-04-06T21:13:34.421Z,21.63
2023-04-06T21:16:01.796Z,22.30
2023-04-06T21:18:32.102Z,21.35
2023-04-06T21:20:59.241Z,22.80
2023-04-06T21:23:26.152Z,22.15
2023-04-06T21:25:57.022Z,23.80
2023-04-06T21:28:25.537Z,26.13
2023-04-06T21:30:53.987Z,26.90
2023-04-06T21:33:21.077Z,25.50
2023-04-06T21:35:48.231Z,26.63
2023-04-06T21:38:15.207Z,28.20
2023-04-06T21:40:41.992Z,22.67
2023-04-06T21:43:08.826Z,25.27
2023-04-06T21:45:35.865Z,23.10
2023-04-06T21:48:02.709Z,25.10
2023-04-06T21:50:29.612Z,18.40
2023-04-06T21:52:59.253Z,20.90
2023-04-06T21:55:26.159Z,15.95
2023-04-06T21:57:52.946Z,13.02
2023-04-06T22:00:20.134Z,13.95
2023-04-06T22:02:47.355Z,15.05
2023-04-06T22:05:14.509Z,13.70
2023-04-06T22:07:41.346Z,12.45
2023-04-06T22:10:08.840Z,12.48
2023-04-06T22:12:35.888Z,12.70
2023-04-06T22:15:02.838Z,15.75
2023-04-06T22:17:30.821Z,10.32
2023-04-06T22:19:57.676Z,12.30
2023-04-06T22:22:25.813Z,10.07
2023-04-06T22:24:52.813Z,10.25
2023-04-06T22:27:19.667Z,11.57
2023-04-06T22:29:46.494Z,9.77
2023-04-06T22:32:13.484Z,13.60
2023-04-06T22:34:40.471Z,9.35
2023-04-06T22:37:07.242Z,9.05
2023-04-06T22:39:34.240Z,10.38
2023-04-06T22:42:01.101Z,11.32
2023-04-06T22:44:27.943Z,11.20
2023-04-06T22:46:54.766Z,10.88
2023-04-06T22:49:21.607Z,16.17
2023-04-06T22:51:48.448Z,13.15
2023-04-06T22:54:15.404Z,10.63
2023-04-06T22:56:42.202Z,12.10
2023-04-06T22:59:08.960Z,11.00
2023-04-06T23:01:36.004Z,13.90
2023-04-06T23:04:02.953Z,10.27
2023-04-06T23:06:29.800Z,10.13
2023-04-06T23:08:56.592Z,13.60
2023-04-06T23:11:23.426Z,10.55
2023-04-06T23:13:50.217Z,11.07
2023-04-06T23:16:17.029Z,8.52
2023-04-06T23:18:44.059Z,10.98
2023-04-06T23:21:10.879Z,11.48
2023-04-06T23:23:37.696Z,13.10
2023-04-06T23:26:04.819Z,13.27
2023-04-06T23:28:31.579Z,12.77
2023-04-06T23:30:58.379Z,9.05
2023-04-06T23:33:25.586Z,9.57
2023-04-06T23:35:52.426Z,11.88
2023-04-06T23:38:19.202Z,11.38
2023-04-06T23:40:46.206Z,14.80
2023-04-06T23:43:13.026Z,11.50
2023-04-06T23:45:44.380Z,9.63
2023-04-06T23:48:11.662Z,10.45
2023-04-06T23:50:38.842Z,9.10
2023-04-06T23:53:05.887Z,16.60
2023-04-06T23:55:32.808Z,11.48
2023-04-06T23:58:00.120Z,10.70
